createdAt,value
2022-12-18T00:02:09.730Z,101420.72
2022-12-18T00:07:25.287Z,101408.06
2022-12-18T00:09:56.199Z,101412.41
2022-12-18T00:17:59.880Z,101413.84
2022-12-18T00:20:44.717Z,101421.56
2022-12-18T00:23:14.013Z,101422.66
2022-12-18T00:25:45.965Z,101422.91
2022-12-18T00:28:13.838Z,101422.59
2022-12-18T00:30:42.733Z,101428.38
2022-12-18T00:33:19.292Z,101428.59
2022-12-18T00:38:37.275Z,101429.13
2022-12-18T00:41:10.762Z,101421.75
2022-12-18T00:43:40.653Z,101412.88
2022-12-18T00:48:51.679Z,101417.50
2022-12-18T00:51:19.597Z,101413.72
2022-12-18T00:54:03.594Z,101412.63
2022-12-18T00:56:37.361Z,101429.94
2022-12-18T00:59:09.056Z,101425.78
2022-12-18T01:01:46.109Z,101441.28
2022-12-18T01:04:14.463Z,101427.63
2022-12-18T01:06:45.227Z,101430.81
2022-12-18T01:09:16.294Z,101436.53
2022-12-18T01:11:45.574Z,101431.22
2022-12-18T01:14:16.228Z,101434.13
2022-12-18T01:19:34.388Z,101441.47
2022-12-18T01:22:07.199Z,101433.47
2022-12-18T01:24:39.066Z,101432.69
2022-12-18T01:35:44.694Z,101449.81
2022-12-18T01:38:12.996Z,101454.84
2022-12-18T01:40:43.073Z,101461.25
2022-12-18T01:43:18.886Z,101453.81
2022-12-18T01:45:50.696Z,101456.38
2022-12-18T01:48:21.735Z,101451.94
2022-12-18T01:50:52.823Z,101457.25
2022-12-18T01:53:26.992Z,101460.13
2022-12-18T01:58:46.688Z,101444.47
2022-12-18T02:01:18.691Z,101445.97
2022-12-18T02:04:02.547Z,101450.50
2022-12-18T02:06:36.486Z,101451.94
2022-12-18T02:09:13.232Z,101450.44
2022-12-18T02:11:49.600Z,101455.16
2022-12-18T02:14:30.517Z,101445.84
2022-12-18T02:20:07.272Z,101444.69
2022-12-18T02:25:32.693Z,101432.59
2022-12-18T02:28:12.205Z,101428.72
2022-12-18T02:30:46.959Z,101417.75
2022-12-18T02:33:18.524Z,101414.50
2022-12-18T02:35:50.325Z,101420.63
2022-12-18T02:38:19.979Z,101424.09
2022-12-18T02:40:53.664Z,101417.84
2022-12-18T02:43:41.676Z,101422.88
2022-12-18T02:46:29.484Z,101416.03
2022-12-18T02:49:07.153Z,101410.75
2022-12-18T02:51:50.167Z,101410.66
2022-12-18T02:54:23.683Z,101401.50
2022-12-18T02:56:58.493Z,101402.81
2022-12-18T02:59:47.480Z,101407.84
2022-12-18T03:02:22.754Z,101416.72
2022-12-18T03:05:03.118Z,101404.16
2022-12-18T03:07:37.553Z,101410.31
2022-12-18T03:10:11.032Z,101427.19
2022-12-18T03:12:42.805Z,101446.59
2022-12-18T03:15:22.794Z,101444.06
2022-12-18T03:18:05.098Z,101445.50
2022-12-18T03:20:36.650Z,101441.81
2022-12-18T03:23:11.292Z,101441.13
2022-12-18T03:25:43.048Z,101436.75
2022-12-18T03:28:13.269Z,101434.06
2022-12-18T03:30:49.189Z,101428.25
2022-12-18T03:33:23.112Z,101427.13
2022-12-18T03:35:57.326Z,101416.59
2022-12-18T03:38:26.245Z,101417.34
2022-12-18T03:40:59.443Z,101410.56
2022-12-18T03:43:38.927Z,101412.06
2022-12-18T03:46:24.638Z,101414.47
2022-12-18T03:51:49.373Z,101408.81
2022-12-18T03:54:21.605Z,101401.50
2022-12-18T03:57:03.268Z,101405.38
2022-12-18T03:59:40.700Z,101411.09
2022-12-18T04:02:13.953Z,101405.66
2022-12-18T04:05:01.280Z,101397.72
2022-12-18T04:07:37.024Z,101398.31
2022-12-18T04:10:12.276Z,101405.84
2022-12-18T04:12:47.217Z,101410.00
2022-12-18T04:15:20.634Z,101405.53
2022-12-18T04:18:02.140Z,101406.22
2022-12-18T04:20:38.432Z,101407.88
2022-12-18T04:23:12.072Z,101405.72
2022-12-18T04:25:42.714Z,101399.84
2022-12-18T04:28:28.308Z,101398.19
2022-12-18T04:30:57.760Z,101395.97
2022-12-18T04:33:53.643Z,101390.34
2022-12-18T04:36:27.315Z,101386.84
2022-12-18T04:38:59.372Z,101391.28
2022-12-18T04:41:29.746Z,101390.44
2022-12-18T04:44:07.090Z,101381.72
2022-12-18T04:46:42.373Z,101376.34
2022-12-18T04:49:15.651Z,101376.06
2022-12-18T04:51:53.434Z,101377.78
2022-12-18T04:54:22.428Z,101379.13
2022-12-18T04:56:52.584Z,101383.94
2022-12-18T04:59:28.479Z,101387.44
2022-12-18T05:02:00.477Z,101393.66
2022-12-18T05:07:16.785Z,101405.00
2022-12-18T05:09:48.194Z,101402.47
2022-12-18T05:12:18.032Z,101401.75
2022-12-18T05:14:48.199Z,101406.44
2022-12-18T05:17:20.297Z,101402.38
2022-12-18T05:19:54.561Z,101399.72
2022-12-18T05:22:24.944Z,101401.28
2022-12-18T05:24:53.878Z,101407.66
2022-12-18T05:27:24.378Z,101410.06
2022-12-18T05:29:52.646Z,101423.22
2022-12-18T05:32:22.234Z,101416.41
2022-12-18T05:34:57.035Z,101419.06
2022-12-18T05:37:57.014Z,101412.56
2022-12-18T05:40:25.308Z,101418.19
2022-12-18T05:42:54.949Z,101415.56
2022-12-18T05:45:23.525Z,101412.75
2022-12-18T05:47:53.469Z,101405.84
2022-12-18T05:50:26.843Z,101401.13
2022-12-18T05:52:55.209Z,101398.75
2022-12-18T05:55:26.008Z,101404.63
2022-12-18T05:57:56.122Z,101403.19
2022-12-18T06:00:38.407Z,101398.16
2022-12-18T06:03:08.996Z,101404.00
2022-12-18T06:05:55.940Z,101400.47
2022-12-18T06:08:49.872Z,101403.25
2022-12-18T06:11:20.504Z,101402.34
2022-12-18T06:13:53.556Z,101407.53
2022-12-18T06:16:27.995Z,101416.59
2022-12-18T06:19:01.868Z,101422.94
2022-12-18T06:21:35.862Z,101419.63
2022-12-18T06:26:54.273Z,101438.88
2022-12-18T06:29:23.238Z,101435.34
2022-12-18T06:31:53.808Z,101437.47
2022-12-18T06:34:42.229Z,101440.31
2022-12-18T06:37:14.828Z,101442.75
2022-12-18T06:39:46.878Z,101454.84
2022-12-18T06:42:20.438Z,101453.56
2022-12-18T06:44:49.092Z,101468.75
2022-12-18T06:47:18.253Z,101461.91
2022-12-18T06:49:50.552Z,101460.31
2022-12-18T06:52:30.344Z,101456.56
2022-12-18T06:55:00.711Z,101460.03
2022-12-18T06:57:28.841Z,101467.28
2022-12-18T07:00:11.329Z,101464.22
2022-12-18T07:02:41.319Z,101460.16
2022-12-18T07:08:12.952Z,101463.41
2022-12-18T07:10:58.945Z,101460.53
2022-12-18T07:13:28.313Z,101464.19
2022-12-18T07:15:57.717Z,101473.34
2022-12-18T07:18:32.290Z,101478.56
2022-12-18T07:21:14.529Z,101481.09
2022-12-18T07:23:51.622Z,101475.19
2022-12-18T07:29:09.300Z,101489.56
2022-12-18T07:31:45.497Z,101488.75
2022-12-18T07:34:29.868Z,101480.88
2022-12-18T07:39:55.856Z,101477.81
2022-12-18T07:42:53.288Z,101478.25
2022-12-18T07:45:38.308Z,101485.38
2022-12-18T07:54:26.848Z,101487.84
2022-12-18T07:57:09.930Z,101492.19
2022-12-18T07:59:55.802Z,101485.09
2022-12-18T08:02:25.507Z,101492.41
2022-12-18T08:05:02.053Z,101496.47
2022-12-18T08:07:30.650Z,101503.03
2022-12-18T08:10:01.566Z,101508.53
2022-12-18T08:18:35.783Z,101503.88
2022-12-18T08:21:22.827Z,101516.59
2022-12-18T08:24:08.031Z,101509.53
2022-12-18T08:27:20.951Z,101512.03
2022-12-18T08:29:53.011Z,101505.19
2022-12-18T08:32:23.789Z,101501.84
2022-12-18T08:34:53.350Z,101503.50
2022-12-18T08:37:28.730Z,101502.44
2022-12-18T08:40:06.738Z,101500.94
2022-12-18T08:42:52.086Z,101507.34
2022-12-18T08:45:24.085Z,101490.75
2022-12-18T08:47:55.847Z,101487.41
2022-12-18T08:50:25.608Z,101486.31
2022-12-18T08:52:55.158Z,101483.69
2022-12-18T08:55:27.685Z,101473.19
2022-12-18T08:57:56.372Z,101470.63
2022-12-18T09:00:29.669Z,101478.47
2022-12-18T09:02:58.534Z,101487.03
2022-12-18T09:05:33.028Z,101485.41
2022-12-18T09:08:04.436Z,101478.22
2022-12-18T09:10:43.367Z,101475.16
2022-12-18T09:13:24.278Z,101473.66
2022-12-18T09:16:01.775Z,101483.63
2022-12-18T09:18:31.177Z,101490.78
2022-12-18T09:21:06.100Z,101498.16
2022-12-18T09:23:44.324Z,101503.16
2022-12-18T09:26:17.761Z,101496.53
2022-12-18T09:28:46.290Z,101506.81
2022-12-18T09:31:21.695Z,101506.28
2022-12-18T09:36:37.342Z,101505.81
2022-12-18T09:39:08.639Z,101508.84
2022-12-18T09:41:47.199Z,101504.88
2022-12-18T09:44:47.690Z,101495.66
2022-12-18T09:51:02.246Z,101492.25
2022-12-18T09:53:36.691Z,101498.97
2022-12-18T09:56:07.007Z,101509.84
2022-12-18T09:59:02.632Z,101503.88
2022-12-18T10:01:40.175Z,101496.44
2022-12-18T10:04:21.261Z,101502.38
2022-12-18T10:07:09.109Z,101509.97
2022-12-18T10:10:03.308Z,101508.66
2022-12-18T10:12:35.846Z,101508.72
2022-12-18T10:15:08.558Z,101504.00
2022-12-18T10:17:41.071Z,101500.75
2022-12-18T10:20:17.352Z,101505.88
2022-12-18T10:22:50.382Z,101504.16
2022-12-18T10:25:23.723Z,101498.19
2022-12-18T10:27:54.645Z,101482.84
2022-12-18T10:30:28.338Z,101486.91
2022-12-18T10:32:57.387Z,101483.66
2022-12-18T10:35:29.114Z,101469.25
2022-12-18T10:38:06.188Z,101474.31
2022-12-18T10:40:51.837Z,101477.56
2022-12-18T10:43:27.434Z,101489.81
2022-12-18T10:46:04.609Z,101488.38
2022-12-18T10:48:34.106Z,101492.91
2022-12-18T10:51:13.710Z,101489.50
2022-12-18T10:53:44.476Z,101488.09
2022-12-18T10:56:21.928Z,101491.25
2022-12-18T10:59:08.590Z,101481.06
2022-12-18T11:01:49.025Z,101483.59
2022-12-18T11:04:21.987Z,101480.59
2022-12-18T11:07:01.378Z,101486.72
2022-12-18T11:09:34.454Z,101488.56
2022-12-18T11:12:05.170Z,101488.84
2022-12-18T11:14:36.439Z,101474.41
2022-12-18T11:17:25.393Z,101476.91
2022-12-18T11:19:56.444Z,101470.94
2022-12-18T11:22:33.421Z,101486.91
2022-12-18T11:30:51.170Z,101477.75
2022-12-18T11:36:11.949Z,101470.84
2022-12-18T11:39:18.386Z,101478.59
2022-12-18T11:42:28.452Z,101474.22
2022-12-18T11:45:08.455Z,101468.31
2022-12-18T11:47:42.824Z,101466.34
2022-12-18T11:50:21.075Z,101467.06
2022-12-18T11:52:56.705Z,101465.47
2022-12-18T11:55:45.554Z,101453.25
2022-12-18T11:58:26.404Z,101461.94
2022-12-18T12:01:06.576Z,101454.66
2022-12-18T12:03:56.400Z,101476.38
2022-12-18T12:06:32.520Z,101481.00
2022-12-18T12:11:57.367Z,101466.69
2022-12-18T12:14:31.070Z,101469.22
2022-12-18T12:17:01.518Z,101468.41
2022-12-18T12:19:40.544Z,101464.84
2022-12-18T12:25:07.128Z,101457.38
2022-12-18T12:27:45.047Z,101442.88
2022-12-18T12:30:23.390Z,101448.84
2022-12-18T12:33:03.189Z,101443.66
2022-12-18T12:35:35.352Z,101437.66
2022-12-18T12:38:21.674Z,101441.19
2022-12-18T12:41:02.115Z,101444.59
2022-12-18T12:43:49.232Z,101431.00
2022-12-18T12:49:18.919Z,101435.19
2022-12-18T12:57:24.979Z,101432.69
2022-12-18T13:00:05.719Z,101425.88
2022-12-18T13:02:50.406Z,101423.34
2022-12-18T13:05:32.585Z,101434.41
2022-12-18T13:08:03.695Z,101419.06
2022-12-18T13:11:19.833Z,101425.03
2022-12-18T13:13:52.028Z,101418.13
2022-12-18T13:16:41.828Z,101424.84
2022-12-18T13:19:23.939Z,101415.63
2022-12-18T13:21:59.465Z,101405.41
2022-12-18T13:24:29.049Z,101359.34
2022-12-18T13:27:01.342Z,101387.19
2022-12-18T13:29:54.292Z,101384.78
2022-12-18T13:32:31.629Z,101380.53
2022-12-18T13:35:23.709Z,101378.81
2022-12-18T13:37:59.607Z,101380.22
2022-12-18T13:40:55.435Z,101373.44
2022-12-18T13:46:25.769Z,101373.44
2022-12-18T13:49:03.917Z,101369.19
2022-12-18T13:51:34.301Z,101368.31
2022-12-18T13:54:06.530Z,101364.97
2022-12-18T13:56:35.908Z,101354.75
2022-12-18T13:59:25.110Z,101360.59
2022-12-18T14:01:55.325Z,101365.50
2022-12-18T14:04:30.753Z,101349.34
2022-12-18T14:07:09.224Z,101352.72
2022-12-18T14:10:12.271Z,101347.53
2022-12-18T14:13:03.804Z,101352.81
2022-12-18T14:15:43.875Z,101345.94
2022-12-18T14:18:22.902Z,101347.75
2022-12-18T14:21:02.549Z,101341.91
2022-12-18T14:23:42.562Z,101346.13
2022-12-18T14:26:43.488Z,101352.81
2022-12-18T14:32:18.983Z,101352.72
2022-12-18T14:34:56.765Z,101351.06
2022-12-18T14:37:55.430Z,101347.63
2022-12-18T14:54:40.962Z,101345.09
2022-12-18T15:05:11.306Z,101343.44
2022-12-18T15:07:45.131Z,101339.88
2022-12-18T15:10:14.702Z,101334.56
2022-12-18T15:12:56.642Z,101328.63
2022-12-18T15:15:47.302Z,101331.00
2022-12-18T15:28:35.625Z,101327.78
2022-12-18T15:31:37.235Z,101333.81
2022-12-18T15:40:06.310Z,101333.81
2022-12-18T15:52:03.201Z,101318.09
2022-12-18T15:54:49.757Z,101321.41
2022-12-18T16:03:56.810Z,101318.00
2022-12-18T16:07:14.455Z,101315.50
2022-12-18T16:18:18.872Z,101314.19
2022-12-18T16:21:03.849Z,101319.91
2022-12-18T16:23:39.269Z,101316.59
2022-12-18T16:26:28.784Z,101300.34
2022-12-18T16:29:09.736Z,101301.19
2022-12-18T16:34:35.909Z,101300.47
2022-12-18T16:37:06.736Z,101302.88
2022-12-18T16:42:39.337Z,101295.38
2022-12-18T16:45:08.064Z,101294.63
2022-12-18T16:47:36.722Z,101299.75
2022-12-18T16:50:08.137Z,101299.78
2022-12-18T16:52:36.331Z,101287.94
2022-12-18T16:55:05.085Z,101287.94
2022-12-18T16:57:35.664Z,101282.00
2022-12-18T17:03:00.131Z,101290.53
2022-12-18T17:08:13.202Z,101294.00
2022-12-18T17:10:42.496Z,101287.19
2022-12-18T17:13:25.881Z,101286.31
2022-12-18T17:15:58.110Z,101282.06
2022-12-18T17:18:31.200Z,101276.97
2022-12-18T17:21:01.163Z,101285.41
2022-12-18T17:23:37.009Z,101284.59
2022-12-18T17:26:07.731Z,101287.19
2022-12-18T17:28:40.169Z,101295.75
2022-12-18T17:31:13.626Z,101281.31
2022-12-18T17:33:43.762Z,101273.66
2022-12-18T17:36:14.632Z,101271.94
2022-12-18T17:38:51.180Z,101264.28
2022-12-18T17:44:07.457Z,101254.97
2022-12-18T17:46:49.917Z,101255.78
2022-12-18T17:49:18.470Z,101258.28
2022-12-18T17:51:50.806Z,101260.88
2022-12-18T17:54:23.102Z,101271.09
2022-12-18T17:56:53.566Z,101273.63
2022-12-18T18:13:06.271Z,101263.47
2022-12-18T18:22:11.697Z,101268.56
2022-12-18T18:36:37.242Z,101254.94
2022-12-18T18:39:30.691Z,101260.03
2022-12-18T18:42:01.650Z,101248.97
2022-12-18T20:38:27.130Z,101188.72
2022-12-18T20:58:34.306Z,101166.53
2022-12-18T21:16:09.686Z,101159.78
2022-12-18T21:42:34.945Z,101157.28
2022-12-18T21:45:42.183Z,101163.22
2022-12-18T21:57:21.039Z,101179.38
2022-12-18T22:03:17.685Z,101186.97
2022-12-18T22:09:04.258Z,101180.13
2022-12-18T22:24:09.985Z,101167.97
2022-12-18T22:29:59.362Z,101180.63
2022-12-18T22:39:01.360Z,101178.91
2022-12-18T22:41:39.852Z,101176.38
2022-12-18T22:44:17.487Z,101174.66
2022-12-18T22:47:11.382Z,101167.91
2022-12-18T23:36:23.589Z,101122.34
2022-12-18T23:42:01.606Z,101117.16
